createdAt,value
2023-08-24T00:02:05.277Z,101316.28
2023-08-24T00:04:32.493Z,101315.44
2023-08-24T00:06:59.942Z,101315.44
2023-08-24T00:09:27.454Z,101311.72
2023-08-24T00:11:54.816Z,101314.59
2023-08-24T00:14:21.983Z,101310.19
2023-08-24T00:16:49.151Z,101310.19
2023-08-24T00:19:16.328Z,101306.59
2023-08-24T00:21:43.506Z,101308.16
2023-08-24T00:24:10.674Z,101305.31
2023-08-24T00:26:37.956Z,101302.75
2023-08-24T00:29:05.159Z,101301.91
2023-08-24T00:31:33.467Z,101295.66
2023-08-24T00:34:00.709Z,101297.34
2023-08-24T00:36:28.036Z,101304.44
2023-08-24T00:38:55.697Z,101296.50
2023-08-24T00:41:23.782Z,101297.50
2023-08-24T00:43:51.454Z,101303.59
2023-08-24T00:46:18.931Z,101299.03
2023-08-24T00:48:46.179Z,101297.34
2023-08-24T00:51:14.056Z,101293.78
2023-08-24T00:53:43.615Z,101290.38
2023-08-24T00:56:10.872Z,101282.81
2023-08-24T00:58:40.057Z,101289.69
2023-08-24T01:01:07.353Z,101285.25
2023-08-24T01:03:34.922Z,101289.75
2023-08-24T01:06:02.166Z,101281.47
2023-08-24T01:08:29.642Z,101285.91
2023-08-24T01:11:04.034Z,101294.25
2023-08-24T01:13:52.460Z,101288.69
2023-08-24T01:16:28.098Z,101287.38
2023-08-24T01:19:00.287Z,101288.22
2023-08-24T01:21:29.148Z,101292.09
2023-08-24T01:24:02.472Z,101285.38
2023-08-24T01:26:30.385Z,101289.78
2023-08-24T01:28:58.320Z,101295.19
2023-08-24T01:31:26.554Z,101289.94
2023-08-24T01:33:53.918Z,101290.78
2023-08-24T01:36:21.206Z,101299.63
2023-08-24T01:39:00.886Z,101300.59
2023-08-24T01:41:31.610Z,101303.16
2023-08-24T01:44:00.781Z,101300.28
2023-08-24T01:46:28.357Z,101303.84
2023-08-24T01:48:56.587Z,101298.44
2023-08-24T01:51:25.147Z,101295.59
2023-08-24T01:53:52.601Z,101293.91
2023-08-24T01:56:19.824Z,101285.78
2023-08-24T01:58:47.004Z,101288.50
2023-08-24T02:01:14.353Z,101292.88
2023-08-24T02:03:41.739Z,101286.34
2023-08-24T02:06:09.445Z,101288.19
2023-08-24T02:08:36.862Z,101286.34
2023-08-24T02:11:04.082Z,101297.28
2023-08-24T02:13:31.306Z,101282.06
2023-08-24T02:16:05.995Z,101294.44
2023-08-24T02:18:33.718Z,101291.56
2023-08-24T02:21:00.952Z,101282.78
2023-08-24T02:23:28.160Z,101291.03
2023-08-24T02:25:57.077Z,101276.34
2023-08-24T02:28:24.264Z,101278.03
2023-08-24T02:30:51.471Z,101274.66
2023-08-24T02:33:18.659Z,101273.47
2023-08-24T02:35:48.068Z,101277.03
2023-08-24T02:38:15.268Z,101267.09
2023-08-24T02:40:42.516Z,101268.22
2023-08-24T02:43:09.765Z,101272.50
2023-08-24T02:45:37.018Z,101272.63
2023-08-24T02:48:04.886Z,101274.31
2023-08-24T02:50:32.260Z,101268.91
2023-08-24T02:52:59.445Z,101274.31
2023-08-24T02:55:26.613Z,101272.50
2023-08-24T02:57:53.782Z,101276.06
2023-08-24T03:00:21.015Z,101275.22
2023-08-24T03:02:48.233Z,101274.50
2023-08-24T03:05:15.496Z,101272.63
2023-08-24T03:07:43.074Z,101275.22
2023-08-24T03:10:10.561Z,101272.34
2023-08-24T03:12:37.787Z,101274.19
2023-08-24T03:15:05.326Z,101273.34
2023-08-24T03:17:32.520Z,101280.44
2023-08-24T03:19:59.723Z,101275.03
2023-08-24T03:22:26.942Z,101275.03
2023-08-24T03:24:54.138Z,101269.63
2023-08-24T03:27:21.324Z,101271.31
2023-08-24T03:29:48.611Z,101267.09
2023-08-24T03:32:16.004Z,101261.50
2023-08-24T03:34:43.294Z,101257.94
2023-08-24T03:37:10.566Z,101264.22
2023-08-24T03:39:41.899Z,101254.22
2023-08-24T03:42:09.154Z,101262.25
2023-08-24T03:44:37.161Z,101251.53
2023-08-24T03:47:04.568Z,101254.22
2023-08-24T03:49:31.774Z,101249.66
2023-08-24T03:51:59.006Z,101251.41
2023-08-24T03:54:26.703Z,101258.81
2023-08-24T03:56:53.962Z,101252.38
2023-08-24T03:59:21.458Z,101259.66
2023-08-24T04:01:48.643Z,101252.53
2023-08-24T04:04:15.951Z,101260.50
2023-08-24T04:06:43.253Z,101253.38
2023-08-24T04:09:10.468Z,101253.38
2023-08-24T04:11:37.666Z,101255.09
2023-08-24T04:14:05.035Z,101248.81
2023-08-24T04:16:32.258Z,101246.00
2023-08-24T04:19:00.000Z,101255.25
2023-08-24T04:21:27.234Z,101247.84
2023-08-24T04:23:54.972Z,101253.38
2023-08-24T04:26:22.254Z,101246.13
2023-08-24T04:28:49.496Z,101243.56
2023-08-24T04:31:16.791Z,101246.13
2023-08-24T04:33:44.100Z,101246.13
2023-08-24T04:36:11.416Z,101242.56
2023-08-24T04:38:38.730Z,101256.84
2023-08-24T04:41:09.600Z,101254.97
2023-08-24T04:43:39.790Z,101254.97
2023-08-24T04:46:06.987Z,101257.69
2023-08-24T04:48:37.514Z,101256.84
2023-08-24T04:51:04.866Z,101261.22
2023-08-24T04:53:34.850Z,101266.66
2023-08-24T04:56:02.078Z,101254.97
2023-08-24T04:58:29.272Z,101260.38
2023-08-24T05:00:59.093Z,101262.25
2023-08-24T05:03:26.359Z,101267.66
2023-08-24T05:05:53.572Z,101267.50
2023-08-24T05:08:20.802Z,101271.03
2023-08-24T05:10:48.008Z,101268.34
2023-08-24T05:13:15.778Z,101268.34
2023-08-24T05:15:42.987Z,101259.38
2023-08-24T05:18:10.230Z,101264.66
2023-08-24T05:20:37.449Z,101261.38
2023-08-24T05:23:04.759Z,101263.94
2023-08-24T05:25:31.998Z,101273.75
2023-08-24T05:27:59.169Z,101271.03
2023-08-24T05:30:30.133Z,101270.06
2023-08-24T05:32:57.491Z,101272.59
2023-08-24T05:35:24.805Z,101265.31
2023-08-24T05:37:52.209Z,101261.78
2023-08-24T05:40:19.563Z,101265.63
2023-08-24T05:42:46.824Z,101268.03
2023-08-24T05:45:14.131Z,101260.75
2023-08-24T05:47:44.427Z,101266.19
2023-08-24T05:50:12.630Z,101266.19
2023-08-24T05:52:39.842Z,101261.47
2023-08-24T05:55:07.412Z,101266.03
2023-08-24T05:57:34.674Z,101260.63
2023-08-24T06:00:01.877Z,101266.94
2023-08-24T06:02:29.183Z,101259.16
2023-08-24T06:04:56.481Z,101269.03
2023-08-24T06:07:23.811Z,101265.47
2023-08-24T06:09:51.050Z,101273.75
2023-08-24T06:12:18.244Z,101274.19
2023-08-24T06:14:45.441Z,101272.06
2023-08-24T06:17:12.648Z,101265.81
2023-08-24T06:19:39.826Z,101269.94
2023-08-24T06:22:07.015Z,101264.66
2023-08-24T06:24:34.289Z,101267.06
2023-08-24T06:27:01.510Z,101269.09
2023-08-24T06:29:31.487Z,101262.41
2023-08-24T06:31:58.777Z,101269.94
2023-08-24T06:34:26.030Z,101261.97
2023-08-24T06:36:55.030Z,101263.22
2023-08-24T06:39:22.226Z,101261.75
2023-08-24T06:41:49.409Z,101269.81
2023-08-24T06:44:16.748Z,101273.94
2023-08-24T06:46:47.637Z,101264.78
2023-08-24T06:49:15.289Z,101266.03
2023-08-24T06:51:42.521Z,101272.25
2023-08-24T06:54:09.712Z,101275.66
2023-08-24T06:56:36.871Z,101276.66
2023-08-24T06:59:04.113Z,101271.53
2023-08-24T07:01:32.898Z,101274.13
2023-08-24T07:04:00.172Z,101279.22
2023-08-24T07:06:35.556Z,101281.75
2023-08-24T07:09:07.489Z,101280.50
2023-08-24T07:11:39.969Z,101274.38
2023-08-24T07:14:07.186Z,101276.34
2023-08-24T07:16:34.410Z,101278.94
2023-08-24T07:19:01.706Z,101281.34
2023-08-24T07:21:28.944Z,101275.63
2023-08-24T07:23:56.129Z,101267.56
2023-08-24T07:26:23.409Z,101268.84
2023-08-24T07:28:50.586Z,101268.84
2023-08-24T07:31:17.831Z,101268.16
2023-08-24T07:33:45.157Z,101269.13
2023-08-24T07:36:12.417Z,101263.72
2023-08-24T07:38:39.603Z,101253.06
2023-08-24T07:41:08.654Z,101254.94
2023-08-24T07:43:35.953Z,101255.63
2023-08-24T07:46:04.504Z,101248.81
2023-08-24T07:48:33.780Z,101250.38
2023-08-24T07:51:00.974Z,101255.78
2023-08-24T07:53:28.225Z,101255.22
2023-08-24T07:55:58.445Z,101258.22
2023-08-24T07:58:26.165Z,101250.13
2023-08-24T08:00:53.553Z,101244.00
2023-08-24T08:03:21.865Z,101251.44
2023-08-24T08:05:49.338Z,101256.13
2023-08-24T08:08:16.717Z,101255.41
2023-08-24T08:10:44.395Z,101260.97
2023-08-24T08:13:12.749Z,101266.53
2023-08-24T08:15:40.259Z,101274.78
2023-08-24T08:18:07.767Z,101262.38
2023-08-24T08:20:35.075Z,101252.59
2023-08-24T08:23:02.325Z,101240.91
2023-08-24T08:25:29.532Z,101230.94
2023-08-24T08:27:56.754Z,101228.38
2023-08-24T08:30:24.036Z,101233.94
2023-08-24T08:32:53.210Z,101248.44
2023-08-24T08:35:20.702Z,101243.03
2023-08-24T08:37:50.876Z,101243.03
2023-08-24T08:40:19.229Z,101234.94
2023-08-24T08:42:46.796Z,101232.22
2023-08-24T08:45:14.045Z,101233.09
2023-08-24T08:47:42.479Z,101237.63
2023-08-24T08:50:10.964Z,101230.53
2023-08-24T08:52:38.545Z,101222.59
2023-08-24T08:55:07.555Z,101220.72
2023-08-24T08:57:35.358Z,101213.88
2023-08-24T09:00:02.621Z,101209.31
2023-08-24T09:02:30.865Z,101203.06
2023-08-24T09:04:58.487Z,101203.91
2023-08-24T09:07:26.189Z,101198.50
2023-08-24T09:09:53.474Z,101195.94
2023-08-24T09:12:20.664Z,101201.50
2023-08-24T09:14:47.914Z,101193.41
2023-08-24T09:17:22.854Z,101191.69
2023-08-24T09:19:52.855Z,101198.94
2023-08-24T09:22:20.068Z,101191.69
2023-08-24T09:24:53.951Z,101191.69
2023-08-24T09:27:22.757Z,101180.88
2023-08-24T09:29:50.850Z,101196.09
2023-08-24T09:32:24.558Z,101187.16
2023-08-24T09:34:52.073Z,101177.72
2023-08-24T09:37:19.340Z,101176.72
2023-08-24T09:39:46.978Z,101176.63
2023-08-24T09:42:14.732Z,101176.44
2023-08-24T09:44:48.407Z,101167.03
2023-08-24T09:47:16.636Z,101167.75
2023-08-24T09:49:43.810Z,101163.19
2023-08-24T09:52:11.100Z,101168.44
2023-08-24T09:54:39.660Z,101169.44
2023-08-24T09:57:10.792Z,101159.50
2023-08-24T09:59:41.310Z,101157.47
2023-08-24T10:02:17.443Z,101153.22
2023-08-24T10:04:44.904Z,101148.81
2023-08-24T10:07:16.124Z,101147.13
2023-08-24T10:10:00.193Z,101151.69
2023-08-24T10:12:30.170Z,101149.81
2023-08-24T10:15:04.654Z,101154.09
2023-08-24T10:17:34.180Z,101148.69
2023-08-24T10:20:02.398Z,101142.09
2023-08-24T10:22:33.317Z,101138.22
2023-08-24T10:25:00.639Z,101137.94
2023-08-24T10:27:31.094Z,101130.66
2023-08-24T10:30:01.576Z,101127.13
2023-08-24T10:32:29.177Z,101138.94
2023-08-24T10:34:56.483Z,101139.94
2023-08-24T10:37:28.072Z,101147.19
2023-08-24T10:39:55.408Z,101149.75
2023-08-24T10:42:22.636Z,101151.44
2023-08-24T10:44:53.045Z,101156.56
2023-08-24T10:47:22.196Z,101150.13
2023-08-24T10:49:58.431Z,101154.88
2023-08-24T10:52:26.416Z,101146.03
2023-08-24T10:54:54.596Z,101141.34
2023-08-24T10:57:28.759Z,101136.63
2023-08-24T11:00:22.830Z,101132.09
2023-08-24T11:02:51.775Z,101128.97
2023-08-24T11:05:31.271Z,101125.56
2023-08-24T11:08:04.437Z,101103.09
2023-08-24T11:10:43.817Z,101090.56
2023-08-24T11:13:15.665Z,101090.28
2023-08-24T11:15:45.096Z,101084.69
2023-08-24T11:18:28.545Z,101091.66
2023-08-24T11:20:57.585Z,101080.00
2023-08-24T11:23:26.101Z,101083.53
2023-08-24T11:25:57.536Z,101086.56
2023-08-24T11:28:29.813Z,101083.13
2023-08-24T11:31:00.756Z,101073.34
2023-08-24T11:33:32.975Z,101067.78
2023-08-24T11:36:01.046Z,101058.50
2023-08-24T11:38:41.724Z,101062.75
2023-08-24T11:41:12.366Z,101060.34
2023-08-24T11:43:39.560Z,101054.94
2023-08-24T11:46:06.828Z,101050.25
2023-08-24T11:48:34.133Z,101039.56
2023-08-24T11:51:01.523Z,101043.69
2023-08-24T11:53:29.253Z,101040.66
2023-08-24T11:56:05.560Z,101036.09
2023-08-24T11:58:33.793Z,101032.38
2023-08-24T12:01:01.397Z,101030.53
2023-08-24T12:03:28.822Z,101040.34
2023-08-24T12:05:59.680Z,101044.03
2023-08-24T12:08:27.448Z,101039.78
2023-08-24T12:10:54.690Z,101054.03
2023-08-24T12:13:21.897Z,101041.03
2023-08-24T12:15:51.758Z,101036.63
2023-08-24T12:18:19.051Z,101022.09
2023-08-24T12:20:46.274Z,101022.81
2023-08-24T12:23:13.478Z,101010.97
2023-08-24T12:25:44.635Z,101003.03
2023-08-24T12:28:17.119Z,101000.31
2023-08-24T12:30:50.809Z,101008.44
2023-08-24T12:33:33.606Z,101010.13
2023-08-24T12:36:00.869Z,101007.28
2023-08-24T12:38:29.846Z,101007.28
2023-08-24T12:40:57.039Z,100994.41
2023-08-24T12:43:24.318Z,100987.00
2023-08-24T12:45:51.553Z,100980.75
2023-08-24T12:48:18.818Z,100973.50
2023-08-24T12:50:46.034Z,100982.44
2023-08-24T12:53:13.280Z,100986.69
2023-08-24T12:55:41.498Z,100972.16
2023-08-24T12:58:08.702Z,100961.50
2023-08-24T13:00:38.600Z,100956.94
2023-08-24T13:03:05.971Z,100954.22
2023-08-24T13:05:35.217Z,100946.13
2023-08-24T13:08:02.684Z,100940.84
2023-08-24T13:10:30.097Z,100932.91
2023-08-24T13:12:58.102Z,100945.41
2023-08-24T13:15:25.369Z,100940.84
2023-08-24T13:17:52.825Z,100952.50
2023-08-24T13:20:20.310Z,100941.69
2023-08-24T13:22:57.685Z,100932.72
2023-08-24T13:25:25.082Z,100924.63
2023-08-24T13:27:57.346Z,100925.47
2023-08-24T13:30:30.959Z,100908.38
2023-08-24T13:32:58.265Z,100898.28
2023-08-24T13:35:25.598Z,100889.13
2023-08-24T13:37:53.148Z,100890.84
2023-08-24T13:40:20.354Z,100892.69
2023-08-24T13:42:47.619Z,100889.97
2023-08-24T13:45:14.878Z,100891.69
2023-08-24T13:47:42.197Z,100888.16
2023-08-24T13:50:09.697Z,100892.69
2023-08-24T13:52:36.912Z,100887.28
2023-08-24T13:55:12.836Z,100881.88
2023-08-24T13:57:40.740Z,100870.06
2023-08-24T14:00:09.982Z,100863.63
2023-08-24T14:02:39.742Z,100858.22
2023-08-24T14:05:10.245Z,100847.41
2023-08-24T14:07:37.970Z,100844.69
2023-08-24T14:10:06.787Z,100837.41
2023-08-24T14:12:34.296Z,100840.13
2023-08-24T14:15:02.014Z,100835.56
2023-08-24T14:17:29.283Z,100846.38
2023-08-24T14:19:56.642Z,100845.38
2023-08-24T14:22:23.896Z,100849.06
2023-08-24T14:24:51.430Z,100840.97
2023-08-24T14:27:18.699Z,100845.38
2023-08-24T14:29:45.900Z,100846.91
2023-08-24T14:32:13.136Z,100845.06
2023-08-24T14:34:41.032Z,100850.16
2023-08-24T14:37:08.287Z,100849.97
2023-08-24T14:39:35.568Z,100848.94
2023-08-24T14:42:04.104Z,100859.78
2023-08-24T14:44:31.308Z,100872.47
2023-08-24T14:46:58.608Z,100879.75
2023-08-24T14:49:25.856Z,100883.13
2023-08-24T14:51:53.070Z,100890.41
2023-08-24T14:54:20.307Z,100897.66
2023-08-24T14:56:47.599Z,100887.72
2023-08-24T14:59:14.816Z,100885.16
2023-08-24T15:01:46.101Z,100894.31
2023-08-24T15:04:13.398Z,100882.78
2023-08-24T15:06:40.769Z,100876.94
2023-08-24T15:09:08.098Z,100878.50
2023-08-24T15:11:35.409Z,100872.56
2023-08-24T15:14:02.667Z,100876.44
2023-08-24T15:16:29.850Z,100865.94
2023-08-24T15:18:57.050Z,100870.66
2023-08-24T15:21:24.332Z,100870.84
2023-08-24T15:23:51.552Z,100860.16
2023-08-24T15:26:18.796Z,100861.31
2023-08-24T15:29:08.397Z,100851.69
2023-08-24T15:31:35.955Z,100843.56
2023-08-24T15:34:03.210Z,100836.28
2023-08-24T15:36:30.443Z,100833.78
2023-08-24T15:38:58.072Z,100834.44
2023-08-24T15:41:28.887Z,100845.59
2023-08-24T15:43:56.127Z,100828.84
2023-08-24T15:46:23.370Z,100831.19
2023-08-24T15:48:53.733Z,100828.66
2023-08-24T15:51:24.341Z,100820.84
2023-08-24T15:53:51.837Z,100822.53
2023-08-24T15:56:22.939Z,100809.19
2023-08-24T15:58:50.403Z,100809.34
2023-08-24T16:01:18.389Z,100800.56
2023-08-24T16:03:46.004Z,100801.53
2023-08-24T16:06:14.995Z,100792.59
2023-08-24T16:08:43.899Z,100795.28
2023-08-24T16:11:16.283Z,100784.63
2023-08-24T16:13:43.591Z,100786.47
2023-08-24T16:16:10.796Z,100783.94
2023-08-24T16:18:38.003Z,100787.69
2023-08-24T16:21:05.202Z,100775.81
2023-08-24T16:23:32.504Z,100783.25
2023-08-24T16:25:59.822Z,100770.75
2023-08-24T16:28:27.282Z,100765.34
2023-08-24T16:30:54.500Z,100772.59
2023-08-24T16:33:21.811Z,100774.47
2023-08-24T16:35:49.617Z,100783.59
2023-08-24T16:38:16.850Z,100777.19
2023-08-24T16:40:44.164Z,100783.59
2023-08-24T16:43:11.376Z,100787.13
2023-08-24T16:45:40.068Z,100790.72
2023-08-24T16:48:08.521Z,100778.16
2023-08-24T16:50:36.014Z,100775.63
2023-08-24T16:53:04.349Z,100780.22
2023-08-24T16:55:31.538Z,100782.91
2023-08-24T16:57:58.792Z,100790.19
2023-08-24T17:00:26.925Z,100779.53
2023-08-24T17:02:56.469Z,100779.53
2023-08-24T17:05:24.102Z,100783.69
2023-08-24T17:08:11.146Z,100780.00
2023-08-24T17:10:42.612Z,100774.41
2023-08-24T17:13:10.046Z,100776.09
2023-08-24T17:15:37.335Z,100772.72
2023-08-24T17:18:05.795Z,100766.28
2023-08-24T17:20:37.250Z,100766.28
2023-08-24T17:23:04.893Z,100763.75
2023-08-24T17:25:32.435Z,100753.78
2023-08-24T17:27:59.897Z,100756.47
2023-08-24T17:30:29.992Z,100763.75
2023-08-24T17:32:57.618Z,100759.19
2023-08-24T17:35:28.426Z,100761.88
2023-08-24T17:37:56.086Z,100760.03
2023-08-24T17:40:23.486Z,100751.06
2023-08-24T17:42:50.747Z,100747.53
2023-08-24T17:45:22.754Z,100742.09
2023-08-24T17:47:51.043Z,100734.00
2023-08-24T17:50:19.375Z,100734.00
2023-08-24T17:52:46.807Z,100737.53
2023-08-24T17:55:14.034Z,100739.41
2023-08-24T17:57:41.274Z,100740.41
2023-08-24T18:00:10.608Z,100739.41
2023-08-24T18:02:38.109Z,100737.53
2023-08-24T18:05:05.643Z,100735.81
2023-08-24T18:07:32.890Z,100728.72
2023-08-24T18:10:00.207Z,100734.13
2023-08-24T18:12:27.420Z,100736.84
2023-08-24T18:14:54.680Z,100729.75
2023-08-24T18:17:21.957Z,100727.88
2023-08-24T18:19:49.193Z,100722.81
2023-08-24T18:22:16.553Z,100714.88
2023-08-24T18:24:44.641Z,100706.06
2023-08-24T18:27:11.981Z,100700.66
2023-08-24T18:29:41.158Z,100696.59
2023-08-24T18:32:08.408Z,100696.22
2023-08-24T18:34:35.644Z,100707.69
2023-08-24T18:37:03.800Z,100697.38
2023-08-24T18:39:31.092Z,100710.06
2023-08-24T18:41:58.365Z,100718.19
2023-08-24T18:44:25.584Z,100708.03
2023-08-24T18:46:54.129Z,100712.28
2023-08-24T18:49:21.861Z,100708.03
2023-08-24T18:51:52.203Z,100703.63
2023-08-24T18:54:19.464Z,100706.16
2023-08-24T18:56:46.732Z,100689.03
2023-08-24T18:59:13.948Z,100682.28
2023-08-24T19:01:41.249Z,100677.03
2023-08-24T19:04:08.567Z,100674.81
2023-08-24T19:06:46.823Z,100679.22
2023-08-24T19:09:14.517Z,100680.22
2023-08-24T19:11:41.911Z,100681.06
2023-08-24T19:14:09.095Z,100688.34
2023-08-24T19:16:36.278Z,100687.31
2023-08-24T19:19:04.282Z,100681.91
2023-08-24T19:21:32.289Z,100676.69
2023-08-24T19:23:59.495Z,100674.31
2023-08-24T19:26:27.516Z,100666.34
2023-08-24T19:28:54.913Z,100659.03
2023-08-24T19:31:22.209Z,100650.72
2023-08-24T19:33:49.943Z,100649.75
2023-08-24T19:36:17.468Z,100635.09
2023-08-24T19:38:44.696Z,100622.75
2023-08-24T19:41:12.335Z,100629.19
2023-08-24T19:43:39.543Z,100621.00
2023-08-24T19:46:07.018Z,100634.66
2023-08-24T19:48:34.374Z,100636.84
2023-08-24T19:51:01.938Z,100644.28
2023-08-24T19:53:29.249Z,100646.97
2023-08-24T19:55:56.503Z,100638.00
2023-08-24T19:58:24.033Z,100619.97
2023-08-24T20:00:57.576Z,100616.38
2023-08-24T20:03:25.099Z,100610.78
2023-08-24T20:05:55.575Z,100611.66
2023-08-24T20:08:23.674Z,100608.78
2023-08-24T20:10:52.860Z,100611.16
2023-08-24T20:13:21.735Z,100603.06
2023-08-24T20:15:49.639Z,100601.88
2023-08-24T20:18:17.052Z,100598.34
2023-08-24T20:20:44.783Z,100597.00
2023-08-24T20:23:11.997Z,100590.56
2023-08-24T20:25:39.180Z,100586.00
2023-08-24T20:28:07.100Z,100581.47
2023-08-24T20:30:34.341Z,100580.44
2023-08-24T20:33:01.581Z,100567.97
2023-08-24T20:35:28.915Z,100565.25
2023-08-24T20:37:56.445Z,100553.75
2023-08-24T20:40:23.917Z,100545.66
2023-08-24T20:42:51.121Z,100544.63
2023-08-24T20:45:18.400Z,100541.91
2023-08-24T20:47:47.967Z,100543.78
2023-08-24T20:50:15.533Z,100538.38
2023-08-24T20:52:42.836Z,100533.81
2023-08-24T20:55:13.111Z,100536.69
2023-08-24T20:57:40.314Z,100528.59
2023-08-24T21:00:12.015Z,100524.88
2023-08-24T21:05:06.916Z,100520.31
2023-08-24T21:07:35.266Z,100513.38
2023-08-24T21:10:03.115Z,100515.91
2023-08-24T21:12:30.305Z,100523.84
2023-08-24T21:14:57.554Z,100522.00
2023-08-24T21:17:26.023Z,100523.84
2023-08-24T21:19:53.709Z,100530.13
2023-08-24T21:22:20.911Z,100522.34
2023-08-24T21:24:48.105Z,100520.63
2023-08-24T21:27:15.740Z,100523.34
2023-08-24T21:29:45.504Z,100538.88
2023-08-24T21:32:12.823Z,100537.19
2023-08-24T21:34:40.509Z,100539.22
2023-08-24T21:37:07.725Z,100551.72
2023-08-24T21:39:38.212Z,100542.75
2023-08-24T21:42:05.543Z,100544.63
2023-08-24T21:44:32.797Z,100543.78
2023-08-24T21:46:59.976Z,100540.38
2023-08-24T21:49:27.169Z,100546.31
2023-08-24T21:51:54.353Z,100540.91
2023-08-24T21:54:21.509Z,100538.88
2023-08-24T21:56:48.752Z,100530.94
2023-08-24T21:59:15.929Z,100533.81
2023-08-24T22:01:43.280Z,100528.41
2023-08-24T22:04:10.528Z,100526.69
2023-08-24T22:06:37.711Z,100516.56
2023-08-24T22:09:05.358Z,100523.00
2023-08-24T22:11:32.552Z,100520.13
2023-08-24T22:13:59.744Z,100509.31
2023-08-24T22:16:30.435Z,100506.78
2023-08-24T22:18:57.697Z,100498.00
2023-08-24T22:21:24.961Z,100499.19
2023-08-24T22:23:52.149Z,100500.34
2023-08-24T22:26:19.428Z,100509.72
2023-08-24T22:28:46.965Z,100509.19
2023-08-24T22:31:14.237Z,100501.88
2023-08-24T22:33:42.727Z,100506.75
2023-08-24T22:36:10.375Z,100504.56
2023-08-24T22:38:37.853Z,100502.28
2023-08-24T22:41:05.106Z,100500.19
2023-08-24T22:43:32.446Z,100491.72
2023-08-24T22:45:59.786Z,100491.50
2023-08-24T22:48:28.280Z,100488.63
2023-08-24T22:50:55.490Z,100497.41
2023-08-24T22:53:22.742Z,100508.41
2023-08-24T22:55:50.318Z,100512.59
2023-08-24T22:58:17.582Z,100515.13
2023-08-24T23:00:44.793Z,100496.91
2023-08-24T23:03:12.804Z,100498.69
2023-08-24T23:05:40.382Z,100495.69
2023-08-24T23:08:08.160Z,100492.97
2023-08-24T23:10:36.019Z,100489.38
2023-08-24T23:13:03.198Z,100491.06
2023-08-24T23:15:30.377Z,100490.16
2023-08-24T23:17:57.739Z,100487.97
2023-08-24T23:20:26.788Z,100492.72
2023-08-24T23:22:53.955Z,100490.88
2023-08-24T23:25:21.180Z,100483.94
2023-08-24T23:27:49.743Z,100488.50
2023-08-24T23:30:18.041Z,100495.22
2023-08-24T23:32:48.621Z,100489.66
2023-08-24T23:35:16.001Z,100488.66
2023-08-24T23:37:43.225Z,100491.38
2023-08-24T23:40:11.292Z,100483.09
2023-08-24T23:42:41.898Z,100489.63
2023-08-24T23:45:11.132Z,100487.47
2023-08-24T23:47:39.027Z,100482.06
2023-08-24T23:50:06.607Z,100475.63
2023-08-24T23:52:34.424Z,100472.53
2023-08-24T23:55:01.652Z,100465.50
2023-08-24T23:57:28.841Z,100468.19
2023-08-24T23:59:57.046Z,100456.41
